Time;durP1;ratioP1;P1;durP2;ratioP2;P2;SDS_P1;SDS_P2;PMS_P1;PMS_P2;Temp;Humidity;BMP_temperature;BMP_pressure;BME280_temperature;BME280_humidity;BME280_pressure;Samples;Min_cycle;Max_cycle;Signal;HPM_P1;HPM_P2
2023/08/16 00:00:53;;;;;;;3.58;1.70;;;;;;;28.70;42.84;101587.19;5053760;28;20386;-65
2023/08/16 00:03:19;;;;;;;3.58;2.03;;;;;;;28.71;43.69;101586.09;5053772;28;20064;-66
2023/08/16 00:05:44;;;;;;;2.47;1.40;;;;;;;28.71;42.65;101580.59;5052363;28;20555;-66
2023/08/16 00:08:10;;;;;;;3.33;1.60;;;;;;;28.68;43.13;101590.16;5052185;28;20025;-65
2023/08/16 00:10:35;;;;;;;3.28;1.80;;;;;;;28.68;42.75;101606.72;5053505;28;20108;-66
2023/08/16 00:13:01;;;;;;;6.63;2.10;;;;;;;28.68;42.77;101605.88;5052048;28;20029;-66
2023/08/16 00:15:26;;;;;;;6.30;1.90;;;;;;;28.67;43.38;101604.19;5052103;28;20095;-66
2023/08/16 00:17:53;;;;;;;5.93;2.25;;;;;;;28.65;43.83;101600.81;5051996;28;20025;-67
2023/08/16 00:20:20;;;;;;;5.22;1.60;;;;;;;28.66;42.62;101616.28;5052255;28;20127;-65
2023/08/16 00:22:49;;;;;;;3.78;1.80;;;;;;;28.66;43.17;101610.78;5052148;28;20037;-65
2023/08/16 00:25:14;;;;;;;3.70;1.85;;;;;;;28.64;43.62;101607.41;5049288;28;20037;-66
2023/08/16 00:27:41;;;;;;;6.13;2.40;;;;;;;28.64;43.52;101612.94;5053962;28;20041;-66
2023/08/16 00:30:07;;;;;;;4.63;2.05;;;;;;;28.66;43.53;101613.53;5052420;28;20071;-65
2023/08/16 00:32:33;;;;;;;8.05;2.67;;;;;;;28.66;43.59;101619.06;5052312;28;20017;-66
2023/08/16 00:34:58;;;;;;;5.97;1.90;;;;;;;28.65;43.75;101609.94;5053557;28;20023;-66
2023/08/16 00:37:23;;;;;;;6.18;2.13;;;;;;;28.67;43.54;101612.47;5052212;28;20025;-66
2023/08/16 00:39:49;;;;;;;5.57;2.10;;;;;;;28.68;43.63;101614.13;5052274;28;20469;-65
2023/08/16 00:42:14;;;;;;;4.35;2.13;;;;;;;28.67;44.05;101610.53;5035425;28;20028;-66
2023/08/16 00:44:40;;;;;;;3.75;2.40;;;;;;;28.65;43.41;101609.94;5052203;28;20021;-66
2023/08/16 00:47:05;;;;;;;4.55;1.98;;;;;;;28.68;43.59;101612.22;5052191;28;20013;-66
2023/08/16 00:49:31;;;;;;;3.63;2.40;;;;;;;28.66;43.25;101610.78;5053728;28;20024;-66
2023/08/16 00:51:57;;;;;;;6.15;2.33;;;;;;;28.65;44.05;101620.09;5051788;28;20017;-66
2023/08/16 00:54:22;;;;;;;5.70;2.60;;;;;;;28.63;43.54;101614.84;5035621;28;20056;-66
2023/08/16 00:56:48;;;;;;;2.45;2.00;;;;;;;28.62;44.31;101606.75;5035238;28;20025;-66
2023/08/16 00:59:14;;;;;;;4.13;2.47;;;;;;;28.60;44.35;101603.38;5053587;28;20025;-65
2023/08/16 01:01:40;;;;;;;5.10;2.50;;;;;;;28.56;44.36;101594.72;5053065;28;20021;-66
2023/08/16 01:04:05;;;;;;;6.07;2.47;;;;;;;28.56;44.65;101604.94;5051514;28;20029;-66
2023/08/16 01:06:30;;;;;;;8.13;2.40;;;;;;;28.55;44.53;101604.06;5051628;28;20021;-65
2023/08/16 01:08:56;;;;;;;11.95;2.88;;;;;;;28.50;43.79;101605.84;5051937;28;20021;-66
2023/08/16 01:11:31;;;;;;;5.28;2.35;;;;;;;28.49;44.83;101605.00;5053155;28;20477;-66
2023/08/16 01:14:11;;;;;;;5.32;2.50;;;;;;;28.47;44.52;101606.28;5034079;28;20039;-65
2023/08/16 01:16:39;;;;;;;6.18;2.50;;;;;;;28.42;44.14;101603.38;5051978;28;20037;-65
2023/08/16 01:19:10;;;;;;;3.88;2.83;;;;;;;28.37;43.76;101605.94;5052202;28;20087;-65
2023/08/16 01:21:41;;;;;;;6.38;2.53;;;;;;;28.33;44.35;101605.59;5053511;28;20048;-65
2023/08/16 01:24:11;;;;;;;7.40;2.42;;;;;;;28.29;44.02;101607.94;5051285;28;20079;-65
2023/08/16 01:26:37;;;;;;;8.07;3.00;;;;;;;28.23;43.68;101600.56;5051260;28;20037;-65
2023/08/16 01:29:04;;;;;;;7.95;2.53;;;;;;;28.19;43.83;101599.34;5035043;28;20044;-65
2023/08/16 01:31:31;;;;;;;4.75;1.95;;;;;;;28.15;44.58;101611.88;5051851;28;20041;-65
2023/08/16 01:33:57;;;;;;;6.57;3.10;;;;;;;28.11;44.40;101607.88;5051922;28;20040;-65
2023/08/16 01:36:23;;;;;;;5.68;2.40;;;;;;;28.10;44.36;101600.69;5052112;28;20056;-65
2023/08/16 01:38:49;;;;;;;5.32;2.40;;;;;;;28.11;44.61;101613.38;5053473;28;20052;-65
2023/08/16 01:41:35;;;;;;;3.70;1.85;;;;;;;28.11;44.81;101613.38;5053131;28;20044;-66
2023/08/16 01:44:02;;;;;;;7.47;3.17;;;;;;;28.11;44.59;101609.81;5035329;28;20052;-65
2023/08/16 01:46:29;;;;;;;4.43;2.70;;;;;;;28.11;43.67;101613.38;5051984;28;20112;-65
2023/08/16 01:48:56;;;;;;;4.68;2.08;;;;;;;28.13;44.09;101614.03;5052004;28;20037;-65
2023/08/16 01:51:21;;;;;;;3.70;2.58;;;;;;;28.13;43.71;101615.94;5053067;28;20057;-65
2023/08/16 01:53:52;;;;;;;3.47;1.90;;;;;;;28.14;44.64;101621.22;5051665;28;20370;-65
2023/08/16 01:56:18;;;;;;;4.25;2.17;;;;;;;28.12;44.11;101609.56;5051844;28;20047;-65
2023/08/16 01:58:43;;;;;;;3.47;1.80;;;;;;;28.12;44.37;101612.34;5034535;28;20131;-65
2023/08/16 02:01:08;;;;;;;5.40;2.20;;;;;;;28.11;43.73;101623.59;5052518;28;20037;-66
2023/08/16 02:03:34;;;;;;;4.10;1.92;;;;;;;28.08;44.00;101619.38;5034294;28;20033;-65
2023/08/16 02:05:59;;;;;;;4.82;2.53;;;;;;;28.09;43.86;101620.19;5051114;28;20466;-65
2023/08/16 02:08:24;;;;;;;2.95;2.20;;;;;;;28.10;44.03;101614.47;5051215;28;20040;-65
2023/08/16 02:10:50;;;;;;;2.40;1.60;;;;;;;28.09;43.81;101626.56;5050354;28;20029;-66
2023/08/16 02:13:16;;;;;;;4.80;1.92;;;;;;;28.10;43.97;101624.66;5051425;28;20090;-66
2023/08/16 02:15:41;;;;;;;3.45;1.75;;;;;;;28.10;43.28;101622.75;5051108;28;20033;-66
2023/08/16 02:18:10;;;;;;;4.50;2.55;;;;;;;28.09;44.25;101621.03;5052190;28;20407;-66
2023/08/16 02:20:38;;;;;;;6.30;2.00;;;;;;;28.07;43.48;101619.59;5052382;28;20030;-66
2023/08/16 02:23:04;;;;;;;4.60;2.05;;;;;;;28.05;44.11;101617.06;5050877;28;20056;-65
2023/08/16 02:25:30;;;;;;;7.00;2.92;;;;;;;28.06;43.99;101604.97;5050507;28;20191;-66
2023/08/16 02:27:55;;;;;;;4.60;1.80;;;;;;;28.06;43.44;101606.88;5050717;28;20116;-65
2023/08/16 02:30:21;;;;;;;4.63;1.88;;;;;;;28.02;44.33;101595.44;5050928;28;20041;-66
2023/08/16 02:32:46;;;;;;;5.40;1.90;;;;;;;27.99;43.80;101595.03;5051029;28;20060;-65
2023/08/16 02:35:12;;;;;;;4.95;2.20;;;;;;;27.99;44.25;101592.28;5052636;28;20036;-65
2023/08/16 02:37:37;;;;;;;2.25;1.30;;;;;;;27.97;43.40;101606.31;5054578;28;20025;-65
2023/08/16 02:40:03;;;;;;;7.15;2.00;;;;;;;27.95;43.72;101602.06;5054861;28;20044;-66
2023/08/16 02:42:29;;;;;;;8.73;2.00;;;;;;;27.91;43.31;101601.69;5054759;28;20033;-66
2023/08/16 02:44:54;;;;;;;4.97;1.83;;;;;;;27.91;43.55;101600.84;5055682;28;20040;-66
2023/08/16 02:47:19;;;;;;;6.45;2.03;;;;;;;27.88;43.57;101607.63;5037884;28;20051;-66
2023/08/16 02:49:45;;;;;;;1.60;1.50;;;;;;;27.84;43.69;101608.28;5055608;28;20029;-65
2023/08/16 02:52:12;;;;;;;3.22;1.92;;;;;;;27.80;44.05;101599.66;5054406;28;20041;-65
2023/08/16 02:54:38;;;;;;;3.63;1.90;;;;;;;27.79;44.35;101600.72;5055562;28;20467;-65
2023/08/16 02:57:03;;;;;;;2.35;1.92;;;;;;;27.75;44.40;101593.94;5055434;28;20163;-65
2023/08/16 02:59:40;;;;;;;3.72;1.92;;;;;;;27.71;43.49;101601.84;5055644;28;20068;-65
2023/08/16 03:02:07;;;;;;;4.50;1.92;;;;;;;27.68;43.52;101595.91;5054224;28;20466;-66
2023/08/16 03:04:32;;;;;;;4.63;2.10;;;;;;;27.68;43.96;101598.66;5054077;28;20440;-66
2023/08/16 03:06:57;;;;;;;5.80;1.98;;;;;;;27.64;43.82;101600.16;5053825;28;20022;-65
2023/08/16 03:09:23;;;;;;;2.75;1.95;;;;;;;27.61;44.72;101595.13;5055557;28;20492;-66
2023/08/16 03:11:49;;;;;;;3.05;2.10;;;;;;;27.56;43.64;101597.69;5055097;28;20052;-65
2023/08/16 03:14:15;;;;;;;4.45;2.15;;;;;;;27.55;44.29;101602.38;5055506;28;20527;-65
2023/08/16 03:16:40;;;;;;;3.35;1.90;;;;;;;27.52;44.07;101597.31;5052982;28;20112;-66
2023/08/16 03:19:06;;;;;;;4.80;2.03;;;;;;;27.50;44.37;101593.09;5055156;28;20041;-66
2023/08/16 03:21:34;;;;;;;9.45;2.72;;;;;;;27.47;44.82;101590.78;5054797;28;20079;-65
2023/08/16 03:24:00;;;;;;;5.00;2.10;;;;;;;27.46;44.97;101598.19;5054871;28;20033;-65
2023/08/16 03:26:25;;;;;;;5.43;2.55;;;;;;;27.45;44.76;101601.16;5054688;28;20040;-66
2023/08/16 03:28:50;;;;;;;6.05;3.00;;;;;;;27.44;45.33;101599.47;5054921;28;20501;-67
2023/08/16 03:31:16;;;;;;;4.00;2.25;;;;;;;27.43;44.51;101603.28;5053862;28;20098;-66
2023/08/16 03:33:41;;;;;;;4.00;2.45;;;;;;;27.45;44.68;101609.41;5054662;28;20044;-66
2023/08/16 03:36:07;;;;;;;4.35;2.50;;;;;;;27.44;45.55;101610.50;5053181;28;20378;-66
2023/08/16 03:38:32;;;;;;;5.50;2.38;;;;;;;27.44;45.44;101610.50;5054699;28;20029;-66
2023/08/16 03:40:58;;;;;;;6.85;2.47;;;;;;;27.42;44.80;101609.84;5036745;28;20036;-65
2023/08/16 03:43:23;;;;;;;5.10;2.08;;;;;;;27.42;45.54;101607.09;5053386;28;20033;-65
2023/08/16 03:45:48;;;;;;;5.70;2.35;;;;;;;27.41;45.12;101608.19;5052476;28;20503;-65
2023/08/16 03:48:14;;;;;;;4.35;2.38;;;;;;;27.39;45.89;101613.84;5054569;28;20025;-66
2023/08/16 03:50:39;;;;;;;3.00;2.42;;;;;;;27.38;45.66;101605.81;5036563;28;20025;-66
2023/08/16 03:53:04;;;;;;;4.35;2.38;;;;;;;27.38;45.92;101625.94;5053207;28;20056;-66
2023/08/16 03:55:30;;;;;;;6.60;3.63;;;;;;;27.36;45.35;101621.72;5053247;28;20028;-65
2023/08/16 03:57:57;;;;;;;3.67;2.90;;;;;;;27.34;45.53;101626.59;5054781;28;20036;-66
2023/08/16 04:00:23;;;;;;;3.80;2.50;;;;;;;27.36;45.30;101629.97;5054256;28;20021;-66
2023/08/16 04:02:48;;;;;;;3.88;2.38;;;;;;;27.35;45.68;101631.03;5054440;28;20017;-65
2023/08/16 04:05:14;;;;;;;6.63;2.33;;;;;;;27.36;46.00;101629.97;5054448;28;20024;-65
2023/08/16 04:07:40;;;;;;;6.10;2.13;;;;;;;27.37;45.63;101634.41;5053643;28;20024;-66
2023/08/16 04:10:06;;;;;;;6.55;2.80;;;;;;;27.37;46.02;101631.66;5054083;28;20067;-65
2023/08/16 04:12:32;;;;;;;4.05;2.10;;;;;;;27.38;46.44;101639.72;5052681;28;20082;-65
2023/08/16 04:14:57;;;;;;;5.03;2.75;;;;;;;27.36;46.41;101629.97;5052529;28;20464;-65
2023/08/16 04:17:23;;;;;;;4.07;2.08;;;;;;;27.37;46.01;101626.16;5052314;28;20040;-65
2023/08/16 04:19:48;;;;;;;5.63;2.40;;;;;;;27.39;46.00;101629.50;5035812;28;20016;-65
2023/08/16 04:22:13;;;;;;;7.03;2.33;;;;;;;27.36;45.70;101625.28;5053653;28;20082;-65
2023/08/16 04:24:39;;;;;;;6.70;2.78;;;;;;;27.38;45.91;101633.34;5052356;28;20017;-65
2023/08/16 04:27:05;;;;;;;3.15;2.15;;;;;;;27.35;46.40;101622.78;5051803;28;20072;-65
2023/08/16 04:29:30;;;;;;;5.32;2.17;;;;;;;27.34;46.31;101626.59;5053901;28;20056;-65
2023/08/16 04:31:56;;;;;;;6.47;2.55;;;;;;;27.38;46.33;101627.84;5052702;28;20052;-65
2023/08/16 04:34:22;;;;;;;2.80;2.05;;;;;;;27.38;46.06;101627.84;5050759;28;20040;-65
2023/08/16 04:36:47;;;;;;;3.30;2.00;;;;;;;27.33;45.91;101625.75;5053384;28;20383;-65
2023/08/16 04:39:12;;;;;;;4.43;2.00;;;;;;;27.37;46.48;101631.66;5035637;28;20028;-65
2023/08/16 04:41:38;;;;;;;3.40;1.90;;;;;;;27.35;45.90;101631.03;5053420;28;20031;-65
2023/08/16 04:44:06;;;;;;;6.88;2.75;;;;;;;27.33;46.07;101624.91;5053452;28;20039;-65
2023/08/16 04:46:31;;;;;;;5.00;2.63;;;;;;;27.34;46.35;101629.34;5052022;28;20016;-65
2023/08/16 04:48:56;;;;;;;5.97;2.05;;;;;;;27.33;46.74;101636.75;5053620;28;20167;-65
2023/08/16 04:51:22;;;;;;;3.63;1.67;;;;;;;27.32;46.65;101643.34;5035569;28;20507;-65
2023/08/16 04:53:48;;;;;;;5.55;2.20;;;;;;;27.32;46.10;101650.75;5053158;28;20095;-64
2023/08/16 04:56:13;;;;;;;3.55;2.20;;;;;;;27.31;46.73;101643.53;5035402;28;20374;-65
2023/08/16 04:58:38;;;;;;;4.93;2.95;;;;;;;27.30;46.21;101644.63;5052123;28;20060;-65
2023/08/16 05:01:04;;;;;;;4.90;2.72;;;;;;;27.31;46.15;101640.78;5035469;28;20546;-67
2023/08/16 05:03:30;;;;;;;7.90;2.42;;;;;;;27.29;46.67;101634.66;5053548;28;20033;-64
2023/08/16 05:06:01;;;;;;;4.45;1.85;;;;;;;27.28;46.50;101632.97;5035082;28;20036;-65
2023/08/16 05:08:26;;;;;;;2.72;2.03;;;;;;;27.27;47.14;101631.28;5051878;28;20025;-65
2023/08/16 05:10:51;;;;;;;2.83;2.55;;;;;;;27.29;46.47;101634.66;5030938;28;20029;-65
2023/08/16 05:13:17;;;;;;;5.63;2.28;;;;;;;27.28;47.06;101630.22;5031587;28;20033;-64
2023/08/16 05:15:44;;;;;;;6.28;2.58;;;;;;;27.32;46.05;101634.22;5031921;28;20142;-66
2023/08/16 05:18:09;;;;;;;4.93;2.50;;;;;;;27.33;46.53;101635.94;5031770;28;20030;-65
2023/08/16 05:20:35;;;;;;;3.95;2.30;;;;;;;27.36;46.27;101638.25;5032801;28;20117;-65
2023/08/16 05:23:00;;;;;;;3.78;2.78;;;;;;;27.42;45.98;101634.63;5032882;28;20168;-65
2023/08/16 05:25:26;;;;;;;4.65;2.38;;;;;;;27.47;45.92;101637.56;5031551;28;20117;-65
2023/08/16 05:27:51;;;;;;;3.67;1.88;;;;;;;27.49;46.00;101635.44;5031403;28;20041;-65
2023/08/16 05:30:17;;;;;;;3.30;2.10;;;;;;;27.49;46.41;101646.44;5015045;28;20026;-66
2023/08/16 05:32:42;;;;;;;4.75;2.20;;;;;;;27.52;46.39;101657.88;5015031;28;20037;-65
2023/08/16 05:35:07;;;;;;;3.15;2.10;;;;;;;27.56;46.67;101664.63;5036438;28;20025;-65
2023/08/16 05:37:33;;;;;;;5.22;2.63;;;;;;;27.57;46.71;101660.81;5052454;28;20560;-64
2023/08/16 05:39:58;;;;;;;6.07;1.98;;;;;;;27.61;46.88;101663.97;5034845;28;20041;-64
2023/08/16 05:42:26;;;;;;;7.57;2.10;;;;;;;27.60;46.48;101660.38;5051275;28;20048;-65
2023/08/16 05:44:51;;;;;;;2.78;1.95;;;;;;;27.62;46.68;101657.38;5051356;28;20400;-65
2023/08/16 05:47:17;;;;;;;2.60;1.95;;;;;;;27.64;46.78;101660.75;5051212;28;20033;-64
2023/08/16 05:49:42;;;;;;;6.82;2.63;;;;;;;27.67;47.22;101668.56;5051432;28;20029;-65
2023/08/16 05:52:07;;;;;;;5.63;2.22;;;;;;;27.71;47.15;101678.09;5052585;28;20025;-65
2023/08/16 05:54:34;;;;;;;2.83;1.90;;;;;;;27.83;46.74;101670.81;5051063;28;20033;-66
2023/08/16 05:57:00;;;;;;;4.53;2.53;;;;;;;27.92;46.30;101669.47;5050958;28;20566;-66
2023/08/16 05:59:25;;;;;;;3.55;2.08;;;;;;;27.94;46.66;101672.88;5051203;28;20029;-65
2023/08/16 06:01:51;;;;;;;8.15;2.45;;;;;;;28.13;46.41;101682.06;5052042;28;20395;-68
2023/08/16 06:04:16;;;;;;;3.50;1.83;;;;;;;28.09;45.85;101678.91;5052314;28;20080;-64
2023/08/16 06:06:42;;;;;;;4.60;1.73;;;;;;;28.11;46.90;101679.53;5050950;28;20029;-63
2023/08/16 06:09:07;;;;;;;5.75;2.00;;;;;;;28.11;46.84;101682.28;5052662;28;20056;-64
2023/08/16 06:11:33;;;;;;;4.05;2.33;;;;;;;28.08;46.70;101680.00;5056340;28;20079;-64
2023/08/16 06:14:00;;;;;;;2.85;2.42;;;;;;;28.08;46.77;101684.66;5056668;28;20025;-64
2023/08/16 06:16:26;;;;;;;2.63;2.15;;;;;;;28.04;46.54;101681.50;5056068;28;20052;-63
2023/08/16 06:18:52;;;;;;;4.55;2.55;;;;;;;28.03;46.40;101681.75;5054654;28;20033;-64
2023/08/16 06:21:17;;;;;;;5.88;2.35;;;;;;;28.03;46.20;101688.06;5055043;28;20056;-64
2023/08/16 06:23:43;;;;;;;4.85;2.75;;;;;;;28.02;46.26;101683.59;5056385;28;20400;-64
2023/08/16 06:26:09;;;;;;;4.60;1.85;;;;;;;28.03;46.88;101679.81;5054546;28;20511;-64
2023/08/16 06:28:34;;;;;;;4.88;2.58;;;;;;;28.04;46.00;101677.91;5054666;28;20538;-64
2023/08/16 06:31:00;;;;;;;3.40;2.50;;;;;;;28.05;46.37;101676.84;5055919;28;20025;-64
2023/08/16 06:33:25;;;;;;;4.82;2.28;;;;;;;28.03;46.08;101682.56;5054641;28;20100;-64
2023/08/16 06:35:52;;;;;;;5.07;2.55;;;;;;;28.01;46.12;101679.16;5054514;28;20025;-64
2023/08/16 06:38:18;;;;;;;4.00;2.78;;;;;;;28.05;45.81;101683.19;5055767;28;20037;-64
2023/08/16 06:40:43;;;;;;;5.75;2.75;;;;;;;28.11;45.54;101684.22;5056094;28;20028;-64
2023/08/16 06:43:09;;;;;;;6.18;2.83;;;;;;;28.17;45.78;101683.28;5055969;28;20493;-63
2023/08/16 06:45:34;;;;;;;3.95;2.17;;;;;;;28.24;45.90;101679.44;5054488;28;20039;-64
2023/08/16 06:48:03;;;;;;;2.42;1.92;;;;;;;28.51;45.55;101679.19;5054415;28;20439;-64
2023/08/16 06:50:28;;;;;;;3.45;2.08;;;;;;;28.96;44.93;101688.94;5054395;28;20037;-64
2023/08/16 06:52:54;;;;;;;3.63;2.25;;;;;;;29.27;44.68;101691.59;5055732;28;20105;-64
2023/08/16 06:55:19;;;;;;;5.45;2.05;;;;;;;29.58;44.66;101686.94;5054456;28;20044;-64
2023/08/16 06:57:45;;;;;;;4.55;2.40;;;;;;;29.63;44.06;101695.34;5055584;28;20044;-64
2023/08/16 07:00:11;;;;;;;2.67;2.10;;;;;;;29.64;44.62;101691.53;5028888;28;20030;-64
2023/08/16 07:02:37;;;;;;;3.97;1.85;;;;;;;29.66;44.42;101683.84;5035675;28;20029;-64
2023/08/16 07:05:03;;;;;;;5.25;2.20;;;;;;;29.67;44.31;101702.13;5044427;28;20098;-64
2023/08/16 07:07:31;;;;;;;2.05;1.88;;;;;;;29.67;44.11;101702.13;5054209;28;20100;-64
2023/08/16 07:09:56;;;;;;;3.63;1.75;;;;;;;29.68;44.40;101709.31;5054076;28;20029;-64
2023/08/16 07:12:21;;;;;;;5.65;2.42;;;;;;;29.72;44.39;101705.88;5055025;28;20037;-64
2023/08/16 07:14:49;;;;;;;4.45;2.28;;;;;;;29.81;44.16;101703.66;5037251;28;20128;-64
2023/08/16 07:17:14;;;;;;;6.40;2.05;;;;;;;29.86;44.12;101712.06;5054094;28;20103;-64
2023/08/16 07:19:40;;;;;;;1.88;1.65;;;;;;;29.84;44.23;101714.25;5053913;28;20484;-64
2023/08/16 07:22:05;;;;;;;6.55;1.50;;;;;;;29.81;43.80;101714.69;5052667;28;20036;-64
2023/08/16 07:24:30;;;;;;;4.47;1.70;;;;;;;29.79;44.24;101716.81;5054112;28;20033;-64
2023/08/16 07:26:56;;;;;;;2.42;1.40;;;;;;;29.83;43.82;101723.59;5053810;28;20045;-64
2023/08/16 07:29:21;;;;;;;5.65;1.63;;;;;;;29.95;43.37;101716.19;5028007;28;20049;-64
2023/08/16 07:31:48;;;;;;;6.72;1.88;;;;;;;30.04;43.25;101714.75;5047250;28;20036;-64
2023/08/16 07:34:13;;;;;;;2.50;1.48;;;;;;;30.00;43.39;101708.03;5058253;28;20496;-64
2023/08/16 07:36:39;;;;;;;1.83;1.60;;;;;;;30.00;43.14;101713.56;5054722;28;20048;-64
2023/08/16 07:39:04;;;;;;;4.90;2.22;;;;;;;30.05;43.45;101713.69;5055242;28;20044;-64
2023/08/16 07:41:30;;;;;;;4.53;2.00;;;;;;;30.25;42.86;101710.63;5055050;28;20116;-64
2023/08/16 07:43:55;;;;;;;4.63;2.00;;;;;;;30.56;42.79;101716.72;5056883;28;20111;-64
2023/08/16 07:46:20;;;;;;;3.85;1.95;;;;;;;30.54;42.87;101721.63;5060658;28;20040;-64
2023/08/16 07:48:46;;;;;;;4.55;1.92;;;;;;;30.61;42.39;101716.00;5041142;28;20036;-64
2023/08/16 07:51:11;;;;;;;1.58;1.05;;;;;;;30.68;42.07;101725.03;5056888;28;20033;-64
2023/08/16 07:53:37;;;;;;;3.70;1.17;;;;;;;30.76;42.52;101726.59;5055316;28;20040;-64
2023/08/16 07:56:02;;;;;;;3.30;1.70;;;;;;;30.81;42.32;101726.72;5055276;28;20033;-64
2023/08/16 07:58:27;;;;;;;2.70;1.98;;;;;;;30.85;42.15;101717.66;5053617;28;20059;-64
2023/08/16 08:00:54;;;;;;;3.15;1.75;;;;;;;30.90;42.12;101719.72;5037431;28;20074;-64
2023/08/16 08:03:21;;;;;;;3.05;1.85;;;;;;;30.97;42.00;101726.00;5037865;28;20521;-64
2023/08/16 08:05:46;;;;;;;6.43;1.63;;;;;;;30.97;41.89;101726.00;5053859;28;20041;-64
2023/08/16 08:08:12;;;;;;;3.80;1.90;;;;;;;30.98;42.21;101738.78;5052872;28;20033;-64
2023/08/16 08:10:42;;;;;;;2.58;1.63;;;;;;;30.99;41.80;101740.47;5054219;28;20057;-64
2023/08/16 08:13:08;;;;;;;3.28;1.60;;;;;;;31.00;41.41;101726.38;5055097;28;20079;-64
2023/08/16 08:15:33;;;;;;;3.00;1.60;;;;;;;31.47;41.38;101732.69;5054250;28;20115;-64
2023/08/16 08:17:58;;;;;;;2.80;1.85;;;;;;;31.76;41.50;101738.25;5023462;28;20042;-64
2023/08/16 08:20:24;;;;;;;6.85;1.67;;;;;;;31.84;40.73;101737.84;5034295;28;20508;-64
2023/08/16 08:22:49;;;;;;;2.47;1.52;;;;;;;31.96;41.00;101730.34;5045601;28;20186;-64
2023/08/16 08:25:14;;;;;;;6.07;1.73;;;;;;;32.05;40.75;101734.44;5052085;28;20036;-64
2023/08/16 08:27:40;;;;;;;6.03;2.00;;;;;;;32.10;41.08;101734.53;5053662;28;20087;-64
2023/08/16 08:30:07;;;;;;;5.97;2.35;;;;;;;32.11;40.09;101736.19;5053829;28;20040;-64
2023/08/16 08:32:33;;;;;;;4.55;1.98;;;;;;;32.11;40.77;101736.19;5035425;28;20531;-64
2023/08/16 08:34:58;;;;;;;4.95;1.88;;;;;;;32.09;40.83;101741.16;5053751;28;20111;-64
2023/08/16 08:37:24;;;;;;;5.57;1.85;;;;;;;32.02;40.38;101746.03;5052301;28;20507;-64
2023/08/16 08:39:49;;;;;;;3.83;1.70;;;;;;;31.94;40.72;101738.06;5053727;28;20385;-64
2023/08/16 08:42:14;;;;;;;3.17;1.63;;;;;;;31.83;40.48;101736.19;5052644;28;20061;-64
2023/08/16 08:44:41;;;;;;;6.22;1.77;;;;;;;31.74;40.89;101740.44;5052488;28;20036;-64
2023/08/16 08:47:08;;;;;;;4.25;2.10;;;;;;;31.60;40.96;101740.72;5052496;28;20025;-64
2023/08/16 08:49:36;;;;;;;5.32;1.60;;;;;;;31.48;41.24;101747.38;5053237;28;20055;-64
2023/08/16 08:52:03;;;;;;;3.75;1.42;;;;;;;31.40;41.28;101737.50;5052422;28;20044;-65
2023/08/16 08:54:29;;;;;;;3.80;1.50;;;;;;;31.39;40.93;101740.50;5053466;28;20029;-64
2023/08/16 08:56:54;;;;;;;4.28;1.77;;;;;;;31.36;41.29;101736.28;5052047;28;20128;-64
2023/08/16 08:59:20;;;;;;;4.45;1.58;;;;;;;31.32;41.30;101746.19;5052148;28;20037;-64
2023/08/16 09:01:46;;;;;;;5.13;2.95;;;;;;;31.24;41.18;101743.78;5052373;28;20033;-64
2023/08/16 09:04:13;;;;;;;3.25;1.55;;;;;;;31.20;41.61;101737.06;5053431;28;20400;-64
2023/08/16 09:06:39;;;;;;;4.75;1.73;;;;;;;31.16;41.51;101738.63;5035777;28;20136;-64
2023/08/16 09:09:05;;;;;;;3.28;1.52;;;;;;;31.11;41.29;101735.75;5052203;28;20488;-65
2023/08/16 09:11:30;;;;;;;5.03;2.00;;;;;;;31.02;41.35;101738.03;5053073;28;20055;-64
2023/08/16 09:13:55;;;;;;;4.18;1.77;;;;;;;30.95;41.82;101751.16;5051825;28;20037;-64
2023/08/16 09:16:21;;;;;;;1.90;1.63;;;;;;;30.87;41.66;101747.88;5051782;28;20116;-64
2023/08/16 09:18:50;;;;;;;3.30;1.45;;;;;;;30.82;41.51;101748.59;5051395;28;20091;-64
2023/08/16 09:21:18;;;;;;;3.40;1.67;;;;;;;30.75;41.69;101739.56;5051727;28;20487;-64
2023/08/16 09:23:43;;;;;;;3.88;1.90;;;;;;;30.69;42.19;101750.75;5052977;28;20120;-64
2023/08/16 09:26:17;;;;;;;5.35;1.88;;;;;;;30.65;41.89;101747.66;5052968;28;20117;-64
2023/08/16 09:28:42;;;;;;;2.25;1.60;;;;;;;30.61;41.79;101746.44;5052797;28;20140;-64
2023/08/16 09:31:08;;;;;;;4.30;1.85;;;;;;;30.60;42.15;101738.38;5051321;28;20117;-64
2023/08/16 09:33:34;;;;;;;4.57;1.98;;;;;;;30.60;42.11;101741.16;5051790;28;20458;-64
2023/08/16 09:35:59;;;;;;;4.78;1.85;;;;;;;30.63;41.68;101743.44;5051561;28;20033;-64
2023/08/16 09:38:25;;;;;;;2.60;1.45;;;;;;;30.66;41.57;101732.72;5034649;28;20044;-64
2023/08/16 09:40:51;;;;;;;3.35;1.70;;;;;;;30.74;42.27;101737.06;5052702;28;20128;-64
2023/08/16 09:43:19;;;;;;;5.20;2.30;;;;;;;30.79;42.01;101740.81;5052536;28;20108;-64
2023/08/16 09:45:47;;;;;;;2.50;1.60;;;;;;;30.80;41.92;101738.84;5034322;28;20033;-64
2023/08/16 09:48:12;;;;;;;2.53;2.00;;;;;;;30.84;42.07;101737.28;5052781;28;20025;-64
2023/08/16 09:50:38;;;;;;;3.97;1.80;;;;;;;30.85;42.33;101739.00;5052627;28;20044;-64
2023/08/16 09:53:04;;;;;;;2.80;1.90;;;;;;;30.87;41.84;101745.13;5015812;28;20436;-64
2023/08/16 09:55:32;;;;;;;2.35;1.83;;;;;;;30.89;42.04;101740.19;5031808;28;20029;-64
2023/08/16 09:57:58;;;;;;;3.67;1.77;;;;;;;30.96;41.56;101746.47;5051199;28;20033;-64
2023/08/16 10:00:27;;;;;;;3.47;2.35;;;;;;;31.00;42.08;101739.34;5052878;28;20488;-64
2023/08/16 10:02:58;;;;;;;4.13;2.08;;;;;;;31.06;42.07;101741.16;5052820;28;20083;-64
2023/08/16 10:05:25;;;;;;;2.70;1.67;;;;;;;31.18;41.96;101742.00;5053067;28;20047;-64
2023/08/16 10:07:51;;;;;;;4.07;2.28;;;;;;;31.47;41.37;101735.47;5051371;28;20092;-64
2023/08/16 10:10:16;;;;;;;2.13;1.50;;;;;;;31.62;40.98;101732.16;5051757;28;20025;-64
2023/08/16 10:12:43;;;;;;;3.70;2.00;;;;;;;31.78;41.31;101731.38;5052048;28;20377;-64
2023/08/16 10:15:09;;;;;;;2.78;2.17;;;;;;;31.79;41.10;101729.44;5052993;28;20471;-64
2023/08/16 10:17:42;;;;;;;3.50;1.83;;;;;;;31.90;41.26;101721.09;5053071;28;20029;-64
2023/08/16 10:20:13;;;;;;;3.38;1.83;;;;;;;32.07;41.00;101718.38;5035632;28;20044;-64
2023/08/16 10:22:48;;;;;;;2.83;1.50;;;;;;;32.16;40.63;101725.22;5052110;28;20025;-64
2023/08/16 10:25:17;;;;;;;2.30;2.10;;;;;;;32.25;41.12;101713.44;5052815;28;20581;-64
2023/08/16 10:27:45;;;;;;;5.22;1.98;;;;;;;32.29;40.57;101716.56;5051113;28;20037;-64
2023/08/16 10:30:31;;;;;;;4.65;2.08;;;;;;;32.26;40.87;101725.38;5052293;28;20056;-64
2023/08/16 10:33:01;;;;;;;5.15;1.77;;;;;;;32.22;40.81;101729.72;5034022;28;20040;-64
2023/08/16 10:35:27;;;;;;;2.92;1.95;;;;;;;32.20;40.99;101720.81;5018127;28;20515;-64
2023/08/16 10:37:57;;;;;;;2.60;1.83;;;;;;;32.17;40.64;101726.88;5050985;28;20041;-64
2023/08/16 10:40:23;;;;;;;3.97;2.13;;;;;;;32.13;41.14;101731.25;5050765;28;20033;-64
2023/08/16 10:42:52;;;;;;;3.70;2.17;;;;;;;32.06;40.85;101725.00;5052260;28;20091;-64
2023/08/16 10:45:28;;;;;;;2.30;1.80;;;;;;;32.06;40.90;101725.84;5052079;28;20084;-64
2023/08/16 10:47:54;;;;;;;3.63;2.40;;;;;;;32.10;40.78;101726.19;5050756;28;20117;-64
2023/08/16 10:50:20;;;;;;;4.15;2.10;;;;;;;32.16;40.83;101726.03;5051743;28;20029;-64
2023/08/16 10:52:46;;;;;;;4.50;2.42;;;;;;;32.34;40.10;101724.97;5050675;28;20036;-64
2023/08/16 10:55:12;;;;;;;3.53;1.80;;;;;;;32.73;39.98;101721.19;5051030;28;20041;-64
2023/08/16 10:57:50;;;;;;;3.80;2.03;;;;;;;32.68;40.01;101723.91;5053853;28;20082;-64
2023/08/16 11:00:18;;;;;;;7.68;2.50;;;;;;;32.61;40.56;101720.44;5054197;28;20033;-64
2023/08/16 11:02:47;;;;;;;3.63;2.10;;;;;;;32.56;40.33;101712.03;5055516;28;20033;-64
2023/08/16 11:05:20;;;;;;;4.55;2.22;;;;;;;32.51;39.92;101711.09;5054192;28;20028;-64
2023/08/16 11:07:46;;;;;;;3.97;2.10;;;;;;;32.48;40.51;101720.75;5037688;28;20499;-64
2023/08/16 11:10:11;;;;;;;3.40;2.10;;;;;;;32.41;40.50;101719.25;5054199;28;20613;-64
2023/08/16 11:12:36;;;;;;;7.50;3.13;;;;;;;32.33;41.18;101722.44;5037221;28;20036;-64
2023/08/16 11:15:02;;;;;;;5.32;2.63;;;;;;;32.22;40.15;101716.72;5055404;28;20029;-64
2023/08/16 11:17:29;;;;;;;7.38;2.45;;;;;;;32.15;40.78;101715.19;5053859;28;20112;-64
2023/08/16 11:19:54;;;;;;;4.93;2.42;;;;;;;32.10;41.42;101715.97;5055125;28;20055;-64